Warning: Javascript must be enabled to use all the features on this page!


Page Loading - Please Wait...

Click to hideNews Bulletins

Peak Streamflow for the Nation

USGS 03371500 EAST FORK WHITE RIVER NEAR BEDFORD, IN

Lawrence County, Indiana
Hydrologic Unit Code 05120208
Latitude  38°46'13", Longitude  86°24'35" NAD27
Drainage area 3,861  square miles
Gage datum 473.08 feet above NAVD88
Output formats
Table
Graph
Tab-separated file
peakfq (watstore) format
Reselect output format
Water
Year
Date Gage
Height
(feet)
Stream-
flow
(cfs)
1913 1913-03 47.503,Bd 155,0007,Bd
1940 1940-04-23 29.963 50,200
1941 1941-06-12 10.083 7,960
1942 1942-04-14 21.483 24,300
1943 1943-03-22 32.183 59,500
1944 1944-04-15 28.723 44,900
1945 1945-03-09 33.753 68,400
1946 1946-02-18 18.933 21,100
1947 1947-05-05 26.143 37,000
1948 1948-04-16 24.203 31,800
1949 1949-01-08 32.903 63,800
1950 1950-01-08 33.083 64,900
1951 1951-02-25 25.923 36,400
1952 1952-01-31 26.163 37,300
1953 1953-05-21 16.323 17,800
1954 1954-04-11 7.493 4,600
1955 1955-03-05 20.203 24,200
1956 1956-06-02 24.053 31,700
1957 1957-05-26 27.633 41,700
1958 1957-12-23 27.326 34,900
1959 1959-01-25 34.87 65,100
1960 1960-06-27 29.25 42,300
1961 1961-05-11 35.97 70,900
1962 1962-03-02   35,400
1963 1963-03-08   59,700
1964 1964-03-12   75,700
1965 1965-02-14   31,600
1966 1966-02-15   19,500
1967 1966-12-14 26.43 36,200
1968 1968-05-27   71,300
1969 1969-02-02   53,200
1970 1970-04-06 22.66 23,700
1971 1971-02-25 27.51 37,400
1972 1972-04-19 26.192 34,000
1973 1973-03-15 23.89 25,200
1974 1974-04-12 21.742 21,000
1975 1975-02-27 30.19 50,100
1976 1976-01-30 21.64 21,400
1977 1977-04-07 17.68 13,500
1978 1978-03-18 30.54 45,400
1979 1979-02-28 30.85 46,900
1980 1979-11-30 26.25 28,800
1981 1981-06-01 23.51 21,900
1982 1982-02-03 29.905 42,400
1983 1983-05-05 31.95 52,500
1984 1984-04-26 26.44 31,000
1985 1985-04-04 28.60 37,000
1986 1985-12-02 26.85 32,800
1987 1987-04-19 14.91 10,700
1988 1988-04-11 23.15 23,400
1989 1989-04-04 27.93 36,500
1990 1990-05-20 32.17 54,100
1991 1991-01-03 32.34 54,900
1992 1992-08-13 18.20 14,900
1993 1993-03-09 23.94 25,200
1994 1993-11-20   58,0001,2
1995 1995-05-22 28.50 38,300
1996 1996-05-01 36.32 80,500
1997 1997-06-04 31.04 48,700
1998 1998-04-19 29.70 42,900
1999 1999-01-26 28.17 37,200
2000 2000-04-13 20.43 18,200
2001 2000-12-21   17,0001,2
2002 2002-05-16 31.29 49,900
2003 2003-05-10 21.94 20,900
2004 2004-01-08 32.81 57,200
2005 2005-01-09 37.84 92,300
2006 2006-03-15 34.39 66,900
2007 2007-01-18 30.37 45,800
2008 2008-03-22 34.66 68,700
2009 2009-08-10 27.41 34,400
2010 2010-06-19 24.52 25,500
2011 2011-04-24 33.07 58,600
2012 2011-12-09 28.20 37,100
2013 2013-01-18 25.40 28,000
2014 2013-12-26 31.55 51,100
2015 2015-07-18 32.36 55,000
2016 2016-01-01 29.17 40,700
2017 2017-05-09 28.60 38,500
2018 2018-02-28 32.10 53,700
2019 2019-02-11 32.30 54,700
2020 2020-03-23 29.64 42,600
2021 2021-03-04 25.54 28,400
?
  Peak Gage-Height Qualification Codes.
?
  Peak Streamflow Qualification Codes.